Airfield :
LOGIN :

Register | Disclaimer

   EN    FR    IT 

 










Legend :    VFR   Marginal VFR   IFR   Intensive IFR   Very Intensive IFR
Visi :
Ceiling :
>= 8 km
>= 3000ft
5 to 8 km
1000 to 3000 ft
1500m to 5 km
500 to 1000 ft
800 to 1500m
200 to 500 ft
< 800m
< 200 ft
Symbols :   Thunderstorms  Fog  Heavy snow  Heavy precipitations  Wind > 20 kt
SIGMETs :     Misc.  Thunderstorms  Icing  Turbulence  Mountain Waves  Volcanic Ashes






- Airport Elevation : -15 ft
- IATA code : RTM


EHRD - Rotterdam Zestienhoven

CURRENT METAR :
  • 200055Z AUTO 22016G26KT 180V240 9999 SCT010 BKN012 OVC016 08/07 Q1015 NOSIG

EXPIRED METARs :
  • 200025Z AUTO 21016G28KT 170V240 9999 SCT008 BKN010 BKN013 08/07 Q1015 NOSIG
  • 192355Z AUTO 20013KT 170V230 9999 -DZRA FEW007 BKN009 OVC010 07/06 Q1016 NOSIG
  • 192325Z AUTO 20011KT 170V240 9999 FEW008 BKN009 BKN011 FEW015CB 07/06 Q1016 REDZ NOSIG
  • 192255Z AUTO 20014KT 160V230 9999 DZ FEW008 BKN009 OVC011 07/06 Q1016 NOSIG
  • 192225Z AUTO 20013KT 170V240 9999 FEW008 BKN009 OVC011 07/06 Q1017 NOSIG
  • 192155Z AUTO 19013KT 160V220 9999 -DZ SCT010 BKN013 OVC018 07/05 Q1017 NOSIG

TAF TAF EHRD
Valid from the 20 at 00:00 until the 21 at 06:00 UTC


192259Z 2000/2106 19012KT 9999 -RADZ BKN012
TEMPO 2000/2005 4000 -DZ BKN007 OVC010
BECMG 2007/2010 20017G27KT BKN018
BECMG 2010/2013 SCT025
TEMPO 2017/2018 25030G42KT 2500 SHRA RA BKN012 SCT020CB
BECMG 2017/2018 29023G33KT 4000 RA SHRA OVC015 FEW020CB
BECMG 2018/2020 28018G28KT 9999 NSW SCT025
BECMG 2103/2106 25012KT



MET'MAP, your aeronautical weather chart ! - Copyright ORBIFLY December 2007 - Disclaimer

ORBIFLY MET'MAP TEAM :

Programming & Development : Alexandra Zaïnal
Concept & original design : Baudouin d'Aumeries
Assistance for programming : Marc-Olivier Méhu
Technical & hardware support : Manuel Goepfert

Contact : metmap@orbifly.com




SOURCES & CREDITS :

   NOAA